sensor_id;sensor_type;location;lat;lon;timestamp;temperature;humidity
26721;HTU21D;15950;51.112;6.966;2024-01-16T00:02:28;1.70;91.63
26721;HTU21D;15950;51.112;6.966;2024-01-16T00:05:28;1.78;91.58
26721;HTU21D;15950;51.112;6.966;2024-01-16T00:08:28;1.73;91.76
26721;HTU21D;15950;51.112;6.966;2024-01-16T00:11:28;1.72;91.86
26721;HTU21D;15950;51.112;6.966;2024-01-16T00:14:28;1.71;91.85
26721;HTU21D;15950;51.112;6.966;2024-01-16T00:17:28;1.75;91.95
26721;HTU21D;15950;51.112;6.966;2024-01-16T00:20:28;1.77;91.81
26721;HTU21D;15950;51.112;6.966;2024-01-16T00:23:28;1.86;91.65
26721;HTU21D;15950;51.112;6.966;2024-01-16T00:26:28;1.83;91.67
26721;HTU21D;15950;51.112;6.966;2024-01-16T00:29:28;1.69;91.73
26721;HTU21D;15950;51.112;6.966;2024-01-16T00:32:28;1.80;91.98
26721;HTU21D;15950;51.112;6.966;2024-01-16T00:35:28;1.81;91.78
26721;HTU21D;15950;51.112;6.966;2024-01-16T00:38:28;1.78;91.65
26721;HTU21D;15950;51.112;6.966;2024-01-16T00:41:28;1.92;91.50
26721;HTU21D;15950;51.112;6.966;2024-01-16T00:44:28;1.81;91.52
26721;HTU21D;15950;51.112;6.966;2024-01-16T00:47:28;1.86;91.68
26721;HTU21D;15950;51.112;6.966;2024-01-16T00:50:28;1.77;91.76
26721;HTU21D;15950;51.112;6.966;2024-01-16T00:53:28;1.92;91.60
26721;HTU21D;15950;51.112;6.966;2024-01-16T00:56:28;1.71;91.59
26721;HTU21D;15950;51.112;6.966;2024-01-16T00:59:28;1.85;91.40
26721;HTU21D;15950;51.112;6.966;2024-01-16T01:02:28;1.76;91.63
26721;HTU21D;15950;51.112;6.966;2024-01-16T01:05:28;1.64;91.73
26721;HTU21D;15950;51.112;6.966;2024-01-16T01:08:28;1.79;91.44
26721;HTU21D;15950;51.112;6.966;2024-01-16T01:11:28;1.83;91.40
26721;HTU21D;15950;51.112;6.966;2024-01-16T01:14:28;1.75;91.69
26721;HTU21D;15950;51.112;6.966;2024-01-16T01:17:28;1.62;91.62
26721;HTU21D;15950;51.112;6.966;2024-01-16T01:20:28;1.67;91.43
26721;HTU21D;15950;51.112;6.966;2024-01-16T01:23:28;1.64;91.96
26721;HTU21D;15950;51.112;6.966;2024-01-16T01:26:28;1.67;91.80
26721;HTU21D;15950;51.112;6.966;2024-01-16T01:29:28;1.78;91.57
26721;HTU21D;15950;51.112;6.966;2024-01-16T01:32:28;1.73;91.47
26721;HTU21D;15950;51.112;6.966;2024-01-16T01:35:28;1.78;91.54
26721;HTU21D;15950;51.112;6.966;2024-01-16T01:38:28;1.75;91.79
26721;HTU21D;15950;51.112;6.966;2024-01-16T01:41:28;1.72;91.77
26721;HTU21D;15950;51.112;6.966;2024-01-16T01:44:28;1.69;91.76
26721;HTU21D;15950;51.112;6.966;2024-01-16T01:47:29;1.71;91.58
26721;HTU21D;15950;51.112;6.966;2024-01-16T01:50:28;1.72;91.61
26721;HTU21D;15950;51.112;6.966;2024-01-16T01:53:29;1.76;91.43
26721;HTU21D;15950;51.112;6.966;2024-01-16T01:56:28;1.63;91.56
26721;HTU21D;15950;51.112;6.966;2024-01-16T01:59:29;1.73;91.87
26721;HTU21D;15950;51.112;6.966;2024-01-16T02:02:28;1.72;91.79
26721;HTU21D;15950;51.112;6.966;2024-01-16T02:05:29;1.70;92.01
26721;HTU21D;15950;51.112;6.966;2024-01-16T02:08:28;1.79;91.83
26721;HTU21D;15950;51.112;6.966;2024-01-16T02:11:28;1.76;91.83
26721;HTU21D;15950;51.112;6.966;2024-01-16T02:14:28;1.68;92.08
26721;HTU21D;15950;51.112;6.966;2024-01-16T02:17:28;1.72;92.28
26721;HTU21D;15950;51.112;6.966;2024-01-16T02:20:28;1.63;92.45
26721;HTU21D;15950;51.112;6.966;2024-01-16T02:23:28;1.69;92.37
26721;HTU21D;15950;51.112;6.966;2024-01-16T02:26:28;1.81;92.24
26721;HTU21D;15950;51.112;6.966;2024-01-16T02:29:28;1.77;92.22
26721;HTU21D;15950;51.112;6.966;2024-01-16T02:32:28;1.79;92.04
26721;HTU21D;15950;51.112;6.966;2024-01-16T02:35:28;1.61;92.34
26721;HTU21D;15950;51.112;6.966;2024-01-16T02:38:28;1.71;92.14
26721;HTU21D;15950;51.112;6.966;2024-01-16T02:41:28;1.69;91.86
26721;HTU21D;15950;51.112;6.966;2024-01-16T02:44:28;1.78;91.72
26721;HTU21D;15950;51.112;6.966;2024-01-16T02:47:28;1.81;91.67
26721;HTU21D;15950;51.112;6.966;2024-01-16T02:50:28;1.64;91.86
26721;HTU21D;15950;51.112;6.966;2024-01-16T02:53:28;1.61;91.89
26721;HTU21D;15950;51.112;6.966;2024-01-16T02:56:28;1.65;92.14
26721;HTU21D;15950;51.112;6.966;2024-01-16T02:59:28;1.66;92.01
26721;HTU21D;15950;51.112;6.966;2024-01-16T03:02:28;1.56;92.09
26721;HTU21D;15950;51.112;6.966;2024-01-16T03:05:28;1.62;92.04
26721;HTU21D;15950;51.112;6.966;2024-01-16T03:08:28;1.47;92.09
26721;HTU21D;15950;51.112;6.966;2024-01-16T03:11:28;1.56;92.01
26721;HTU21D;15950;51.112;6.966;2024-01-16T03:14:28;1.71;91.79
26721;HTU21D;15950;51.112;6.966;2024-01-16T03:17:28;1.61;91.98
26721;HTU21D;15950;51.112;6.966;2024-01-16T03:20:28;1.61;91.77
26721;HTU21D;15950;51.112;6.966;2024-01-16T03:23:28;1.79;91.44
26721;HTU21D;15950;51.112;6.966;2024-01-16T03:26:28;1.77;91.20
26721;HTU21D;15950;51.112;6.966;2024-01-16T03:29:28;1.57;91.43
26721;HTU21D;15950;51.112;6.966;2024-01-16T03:32:28;1.72;91.69
26721;HTU21D;15950;51.112;6.966;2024-01-16T03:35:28;1.65;91.72
26721;HTU21D;15950;51.112;6.966;2024-01-16T03:38:28;1.63;91.85
26721;HTU21D;15950;51.112;6.966;2024-01-16T03:41:28;1.54;92.11
26721;HTU21D;15950;51.112;6.966;2024-01-16T03:44:28;1.55;92.11
26721;HTU21D;15950;51.112;6.966;2024-01-16T03:47:28;1.55;92.27
26721;HTU21D;15950;51.112;6.966;2024-01-16T03:50:28;1.51;92.29
26721;HTU21D;15950;51.112;6.966;2024-01-16T03:53:28;1.50;92.41
26721;HTU21D;15950;51.112;6.966;2024-01-16T03:56:28;1.46;92.24
26721;HTU21D;15950;51.112;6.966;2024-01-16T03:59:28;1.52;92.26
26721;HTU21D;15950;51.112;6.966;2024-01-16T04:02:28;1.56;91.97
26721;HTU21D;15950;51.112;6.966;2024-01-16T04:05:28;1.46;92.21
26721;HTU21D;15950;51.112;6.966;2024-01-16T04:08:28;1.67;92.05
26721;HTU21D;15950;51.112;6.966;2024-01-16T04:11:28;1.43;92.25
26721;HTU21D;15950;51.112;6.966;2024-01-16T04:14:28;1.46;92.21
26721;HTU21D;15950;51.112;6.966;2024-01-16T04:17:28;1.60;92.18
26721;HTU21D;15950;51.112;6.966;2024-01-16T04:20:28;1.55;91.85
26721;HTU21D;15950;51.112;6.966;2024-01-16T04:23:28;1.46;91.89
26721;HTU21D;15950;51.112;6.966;2024-01-16T04:26:28;1.33;92.27
26721;HTU21D;15950;51.112;6.966;2024-01-16T04:29:28;1.53;92.01
26721;HTU21D;15950;51.112;6.966;2024-01-16T04:32:28;1.64;91.58
26721;HTU21D;15950;51.112;6.966;2024-01-16T04:35:28;1.76;91.32
26721;HTU21D;15950;51.112;6.966;2024-01-16T04:38:28;1.54;91.40
26721;HTU21D;15950;51.112;6.966;2024-01-16T04:41:28;1.53;91.54
26721;HTU21D;15950;51.112;6.966;2024-01-16T04:44:28;1.44;91.89
26721;HTU21D;15950;51.112;6.966;2024-01-16T04:47:28;1.47;91.56
26721;HTU21D;15950;51.112;6.966;2024-01-16T04:50:28;1.66;91.39
26721;HTU21D;15950;51.112;6.966;2024-01-16T04:53:28;1.61;91.60
26721;HTU21D;15950;51.112;6.966;2024-01-16T04:56:28;1.46;91.66
26721;HTU21D;15950;51.112;6.966;2024-01-16T04:59:28;1.47;91.65
26721;HTU21D;15950;51.112;6.966;2024-01-16T05:02:28;1.41;91.89
26721;HTU21D;15950;51.112;6.966;2024-01-16T05:05:28;1.37;91.76
26721;HTU21D;15950;51.112;6.966;2024-01-16T05:08:28;1.60;91.60
26721;HTU21D;15950;51.112;6.966;2024-01-16T05:11:28;1.63;91.26
26721;HTU21D;15950;51.112;6.966;2024-01-16T05:14:28;1.55;91.34
26721;HTU21D;15950;51.112;6.966;2024-01-16T05:17:28;1.67;91.21
26721;HTU21D;15950;51.112;6.966;2024-01-16T05:20:28;1.51;91.24
26721;HTU21D;15950;51.112;6.966;2024-01-16T05:23:28;1.43;91.80
26721;HTU21D;15950;51.112;6.966;2024-01-16T05:26:28;1.54;91.69
26721;HTU21D;15950;51.112;6.966;2024-01-16T05:29:28;1.51;91.64
26721;HTU21D;15950;51.112;6.966;2024-01-16T05:32:28;1.45;91.37
26721;HTU21D;15950;51.112;6.966;2024-01-16T05:35:28;1.33;91.57
26721;HTU21D;15950;51.112;6.966;2024-01-16T05:38:28;1.35;91.34
26721;HTU21D;15950;51.112;6.966;2024-01-16T05:41:32;1.36;91.59
26721;HTU21D;15950;51.112;6.966;2024-01-16T05:44:28;1.40;91.37
26721;HTU21D;15950;51.112;6.966;2024-01-16T05:47:28;1.46;91.08
26721;HTU21D;15950;51.112;6.966;2024-01-16T05:50:28;1.58;90.67
26721;HTU21D;15950;51.112;6.966;2024-01-16T05:53:28;1.61;90.41
26721;HTU21D;15950;51.112;6.966;2024-01-16T05:56:28;1.65;90.19
26721;HTU21D;15950;51.112;6.966;2024-01-16T05:59:28;1.50;90.13
26721;HTU21D;15950;51.112;6.966;2024-01-16T06:02:28;1.39;89.92
26721;HTU21D;15950;51.112;6.966;2024-01-16T06:05:28;1.59;89.63
26721;HTU21D;15950;51.112;6.966;2024-01-16T06:08:28;1.60;89.42
26721;HTU21D;15950;51.112;6.966;2024-01-16T06:11:33;1.59;89.33
26721;HTU21D;15950;51.112;6.966;2024-01-16T06:14:27;1.38;89.73
26721;HTU21D;15950;51.112;6.966;2024-01-16T06:17:27;1.53;89.38
26721;HTU21D;15950;51.112;6.966;2024-01-16T06:20:28;1.60;89.14
26721;HTU21D;15950;51.112;6.966;2024-01-16T06:23:28;1.64;89.02
26721;HTU21D;15950;51.112;6.966;2024-01-16T06:26:27;1.60;88.76
26721;HTU21D;15950;51.112;6.966;2024-01-16T06:29:28;1.58;88.92
26721;HTU21D;15950;51.112;6.966;2024-01-16T06:32:27;1.60;88.53
26721;HTU21D;15950;51.112;6.966;2024-01-16T06:35:27;1.42;88.40
26721;HTU21D;15950;51.112;6.966;2024-01-16T06:38:27;1.47;88.72
26721;HTU21D;15950;51.112;6.966;2024-01-16T06:41:28;1.50;88.50
26721;HTU21D;15950;51.112;6.966;2024-01-16T06:44:27;1.61;88.16
26721;HTU21D;15950;51.112;6.966;2024-01-16T06:47:28;1.55;87.96
26721;HTU21D;15950;51.112;6.966;2024-01-16T06:50:28;1.78;87.76
26721;HTU21D;15950;51.112;6.966;2024-01-16T06:53:27;1.82;87.21
26721;HTU21D;15950;51.112;6.966;2024-01-16T06:56:27;1.65;86.67
26721;HTU21D;15950;51.112;6.966;2024-01-16T06:59:27;1.79;86.65
26721;HTU21D;15950;51.112;6.966;2024-01-16T07:02:27;1.71;86.35
26721;HTU21D;15950;51.112;6.966;2024-01-16T07:05:28;1.59;86.83
26721;HTU21D;15950;51.112;6.966;2024-01-16T07:08:27;1.44;86.89
26721;HTU21D;15950;51.112;6.966;2024-01-16T07:11:27;1.51;87.35
26721;HTU21D;15950;51.112;6.966;2024-01-16T07:14:28;1.60;87.03
26721;HTU21D;15950;51.112;6.966;2024-01-16T07:17:27;1.38;87.38
26721;HTU21D;15950;51.112;6.966;2024-01-16T07:20:28;1.40;87.26
26721;HTU21D;15950;51.112;6.966;2024-01-16T07:23:27;1.57;86.78
26721;HTU21D;15950;51.112;6.966;2024-01-16T07:26:29;1.47;86.77
26721;HTU21D;15950;51.112;6.966;2024-01-16T07:29:27;1.57;86.33
26721;HTU21D;15950;51.112;6.966;2024-01-16T07:32:28;1.42;86.06
26721;HTU21D;15950;51.112;6.966;2024-01-16T07:35:27;1.58;85.54
26721;HTU21D;15950;51.112;6.966;2024-01-16T07:38:27;1.35;85.41
26721;HTU21D;15950;51.112;6.966;2024-01-16T07:41:27;1.53;85.09
26721;HTU21D;15950;51.112;6.966;2024-01-16T07:44:27;1.40;84.86
26721;HTU21D;15950;51.112;6.966;2024-01-16T07:47:27;1.45;84.60
26721;HTU21D;15950;51.112;6.966;2024-01-16T07:50:27;1.44;84.23
26721;HTU21D;15950;51.112;6.966;2024-01-16T07:53:27;1.43;84.43
26721;HTU21D;15950;51.112;6.966;2024-01-16T07:56:27;1.47;84.22
26721;HTU21D;15950;51.112;6.966;2024-01-16T07:59:27;1.55;83.96
26721;HTU21D;15950;51.112;6.966;2024-01-16T08:02:32;1.62;83.35
26721;HTU21D;15950;51.112;6.966;2024-01-16T08:05:27;1.55;83.39
26721;HTU21D;15950;51.112;6.966;2024-01-16T08:08:27;1.44;83.33
26721;HTU21D;15950;51.112;6.966;2024-01-16T08:11:27;1.53;83.65
26721;HTU21D;15950;51.112;6.966;2024-01-16T08:14:28;1.60;83.29
26721;HTU21D;15950;51.112;6.966;2024-01-16T08:17:27;1.57;83.13
26721;HTU21D;15950;51.112;6.966;2024-01-16T08:20:27;1.55;82.96
26721;HTU21D;15950;51.112;6.966;2024-01-16T08:23:27;1.60;82.81
26721;HTU21D;15950;51.112;6.966;2024-01-16T08:26:27;1.63;83.12
26721;HTU21D;15950;51.112;6.966;2024-01-16T08:29:27;1.50;83.07
26721;HTU21D;15950;51.112;6.966;2024-01-16T08:32:27;1.47;82.68
26721;HTU21D;15950;51.112;6.966;2024-01-16T08:35:27;1.43;82.43
26721;HTU21D;15950;51.112;6.966;2024-01-16T08:38:27;1.60;82.24
26721;HTU21D;15950;51.112;6.966;2024-01-16T08:41:27;1.48;82.04
26721;HTU21D;15950;51.112;6.966;2024-01-16T08:44:27;1.46;82.02
26721;HTU21D;15950;51.112;6.966;2024-01-16T08:47:27;1.44;82.27
26721;HTU21D;15950;51.112;6.966;2024-01-16T08:50:28;1.66;81.80
26721;HTU21D;15950;51.112;6.966;2024-01-16T08:53:27;1.62;81.70
26721;HTU21D;15950;51.112;6.966;2024-01-16T08:56:27;1.70;81.39
26721;HTU21D;15950;51.112;6.966;2024-01-16T08:59:27;1.63;81.07
26721;HTU21D;15950;51.112;6.966;2024-01-16T09:02:27;1.72;81.15
26721;HTU21D;15950;51.112;6.966;2024-01-16T09:05:27;1.67;81.22
26721;HTU21D;15950;51.112;6.966;2024-01-16T09:08:27;1.90;81.40
26721;HTU21D;15950;51.112;6.966;2024-01-16T09:11:27;1.73;81.05
26721;HTU21D;15950;51.112;6.966;2024-01-16T09:14:27;1.72;80.66
26721;HTU21D;15950;51.112;6.966;2024-01-16T09:17:27;1.84;80.21
26721;HTU21D;15950;51.112;6.966;2024-01-16T09:20:27;1.86;79.55
26721;HTU21D;15950;51.112;6.966;2024-01-16T09:23:27;1.87;79.49
26721;HTU21D;15950;51.112;6.966;2024-01-16T09:26:27;1.84;79.63
26721;HTU21D;15950;51.112;6.966;2024-01-16T09:29:27;1.80;79.49
26721;HTU21D;15950;51.112;6.966;2024-01-16T09:32:27;1.75;79.22
26721;HTU21D;15950;51.112;6.966;2024-01-16T09:35:27;1.78;78.88
26721;HTU21D;15950;51.112;6.966;2024-01-16T09:38:28;1.76;78.66
26721;HTU21D;15950;51.112;6.966;2024-01-16T09:41:27;1.78;78.34
26721;HTU21D;15950;51.112;6.966;2024-01-16T09:44:28;1.79;78.53
26721;HTU21D;15950;51.112;6.966;2024-01-16T09:47:27;1.74;78.49
26721;HTU21D;15950;51.112;6.966;2024-01-16T09:50:27;1.74;78.40
26721;HTU21D;15950;51.112;6.966;2024-01-16T09:53:27;1.66;77.95
26721;HTU21D;15950;51.112;6.966;2024-01-16T09:56:28;1.71;78.20
26721;HTU21D;15950;51.112;6.966;2024-01-16T09:59:29;1.80;78.40
26721;HTU21D;15950;51.112;6.966;2024-01-16T10:02:28;1.90;78.49
26721;HTU21D;15950;51.112;6.966;2024-01-16T10:05:30;1.67;78.68
26721;HTU21D;15950;51.112;6.966;2024-01-16T10:08:29;1.93;78.45
26721;HTU21D;15950;51.112;6.966;2024-01-16T10:11:28;1.84;78.00
26721;HTU21D;15950;51.112;6.966;2024-01-16T10:14:28;1.78;77.76
26721;HTU21D;15950;51.112;6.966;2024-01-16T10:17:36;1.71;77.72
26721;HTU21D;15950;51.112;6.966;2024-01-16T10:20:34;1.67;77.62
26721;HTU21D;15950;51.112;6.966;2024-01-16T10:23:32;1.68;77.38
26721;HTU21D;15950;51.112;6.966;2024-01-16T10:26:27;1.68;77.29
26721;HTU21D;15950;51.112;6.966;2024-01-16T10:29:27;1.66;77.11
26721;HTU21D;15950;51.112;6.966;2024-01-16T10:32:33;1.61;77.22
26721;HTU21D;15950;51.112;6.966;2024-01-16T10:35:27;1.59;77.36
26721;HTU21D;15950;51.112;6.966;2024-01-16T10:38:27;1.65;77.60
26721;HTU21D;15950;51.112;6.966;2024-01-16T10:41:27;1.71;77.85
26721;HTU21D;15950;51.112;6.966;2024-01-16T10:44:27;1.74;77.59
26721;HTU21D;15950;51.112;6.966;2024-01-16T10:47:27;1.66;77.21
26721;HTU21D;15950;51.112;6.966;2024-01-16T10:50:27;1.61;77.14
26721;HTU21D;15950;51.112;6.966;2024-01-16T10:53:32;1.71;76.84
26721;HTU21D;15950;51.112;6.966;2024-01-16T10:56:28;1.75;77.11
26721;HTU21D;15950;51.112;6.966;2024-01-16T11:00:18;1.69;77.00
26721;HTU21D;15950;51.112;6.966;2024-01-16T11:02:33;1.84;77.11
26721;HTU21D;15950;51.112;6.966;2024-01-16T11:05:28;1.80;76.98
26721;HTU21D;15950;51.112;6.966;2024-01-16T11:08:28;1.83;76.75
26721;HTU21D;15950;51.112;6.966;2024-01-16T11:11:28;1.88;76.76
26721;HTU21D;15950;51.112;6.966;2024-01-16T11:14:29;2.05;77.28
26721;HTU21D;15950;51.112;6.966;2024-01-16T11:17:30;1.96;76.90
26721;HTU21D;15950;51.112;6.966;2024-01-16T11:20:29;2.02;76.07
26721;HTU21D;15950;51.112;6.966;2024-01-16T11:23:27;2.04;75.92
26721;HTU21D;15950;51.112;6.966;2024-01-16T11:26:32;2.07;75.75
26721;HTU21D;15950;51.112;6.966;2024-01-16T11:32:36;2.04;75.47
26721;HTU21D;15950;51.112;6.966;2024-01-16T11:35:36;2.07;75.41
26721;HTU21D;15950;51.112;6.966;2024-01-16T11:38:30;2.14;75.57
26721;HTU21D;15950;51.112;6.966;2024-01-16T11:41:47;2.09;75.62
26721;HTU21D;15950;51.112;6.966;2024-01-16T11:47:27;2.05;74.62
26721;HTU21D;15950;51.112;6.966;2024-01-16T11:50:28;2.00;74.52
26721;HTU21D;15950;51.112;6.966;2024-01-16T11:56:38;2.04;74.38
26721;HTU21D;15950;51.112;6.966;2024-01-16T11:59:40;2.16;74.51
26721;HTU21D;15950;51.112;6.966;2024-01-16T12:03:15;2.18;74.65
26721;HTU21D;15950;51.112;6.966;2024-01-16T12:05:27;2.10;74.48
26721;HTU21D;15950;51.112;6.966;2024-01-16T12:08:27;2.19;74.31
26721;HTU21D;15950;51.112;6.966;2024-01-16T12:11:27;2.36;74.00
26721;HTU21D;15950;51.112;6.966;2024-01-16T12:14:28;2.55;73.90
26721;HTU21D;15950;51.112;6.966;2024-01-16T12:17:27;2.43;73.44
26721;HTU21D;15950;51.112;6.966;2024-01-16T12:20:32;2.36;73.09
26721;HTU21D;15950;51.112;6.966;2024-01-16T12:23:27;2.36;72.97
26721;HTU21D;15950;51.112;6.966;2024-01-16T12:26:27;2.39;72.92
26721;HTU21D;15950;51.112;6.966;2024-01-16T12:29:27;2.33;72.48
26721;HTU21D;15950;51.112;6.966;2024-01-16T12:32:27;2.27;72.49
26721;HTU21D;15950;51.112;6.966;2024-01-16T12:35:27;2.26;72.80
26721;HTU21D;15950;51.112;6.966;2024-01-16T12:38:27;2.24;72.54
26721;HTU21D;15950;51.112;6.966;2024-01-16T12:41:34;2.23;72.73
26721;HTU21D;15950;51.112;6.966;2024-01-16T12:44:28;2.21;72.74
26721;HTU21D;15950;51.112;6.966;2024-01-16T12:47:27;2.14;72.55
26721;HTU21D;15950;51.112;6.966;2024-01-16T12:50:28;2.19;72.88
26721;HTU21D;15950;51.112;6.966;2024-01-16T12:53:28;2.17;72.93
26721;HTU21D;15950;51.112;6.966;2024-01-16T12:56:27;2.09;72.67
26721;HTU21D;15950;51.112;6.966;2024-01-16T12:59:28;2.26;72.31
26721;HTU21D;15950;51.112;6.966;2024-01-16T13:02:27;2.19;72.09
26721;HTU21D;15950;51.112;6.966;2024-01-16T13:05:27;2.21;72.46
26721;HTU21D;15950;51.112;6.966;2024-01-16T13:08:27;2.16;71.72
26721;HTU21D;15950;51.112;6.966;2024-01-16T13:11:27;2.31;71.56
26721;HTU21D;15950;51.112;6.966;2024-01-16T13:14:27;2.20;71.74
26721;HTU21D;15950;51.112;6.966;2024-01-16T13:17:27;2.16;71.72
26721;HTU21D;15950;51.112;6.966;2024-01-16T13:20:27;2.28;71.45
26721;HTU21D;15950;51.112;6.966;2024-01-16T13:23:28;2.35;71.73
26721;HTU21D;15950;51.112;6.966;2024-01-16T13:26:27;2.36;72.19
26721;HTU21D;15950;51.112;6.966;2024-01-16T13:29:27;2.24;72.20
26721;HTU21D;15950;51.112;6.966;2024-01-16T13:32:27;2.17;71.87
26721;HTU21D;15950;51.112;6.966;2024-01-16T13:35:27;2.24;71.84
26721;HTU21D;15950;51.112;6.966;2024-01-16T13:38:27;2.31;71.80
26721;HTU21D;15950;51.112;6.966;2024-01-16T13:41:27;2.37;71.48
26721;HTU21D;15950;51.112;6.966;2024-01-16T13:44:27;2.48;71.53
26721;HTU21D;15950;51.112;6.966;2024-01-16T13:47:27;2.50;71.03
26721;HTU21D;15950;51.112;6.966;2024-01-16T13:50:28;2.47;70.93
26721;HTU21D;15950;51.112;6.966;2024-01-16T13:53:27;2.38;70.64
26721;HTU21D;15950;51.112;6.966;2024-01-16T13:56:27;2.28;70.65
26721;HTU21D;15950;51.112;6.966;2024-01-16T13:59:27;2.44;70.60
26721;HTU21D;15950;51.112;6.966;2024-01-16T14:02:27;2.39;70.64
26721;HTU21D;15950;51.112;6.966;2024-01-16T14:05:27;2.33;70.79
26721;HTU21D;15950;51.112;6.966;2024-01-16T14:08:27;2.32;71.19
26721;HTU21D;15950;51.112;6.966;2024-01-16T14:11:27;2.15;71.03
26721;HTU21D;15950;51.112;6.966;2024-01-16T14:14:27;2.05;71.11
26721;HTU21D;15950;51.112;6.966;2024-01-16T14:17:27;2.02;71.22
26721;HTU21D;15950;51.112;6.966;2024-01-16T14:20:27;1.99;71.65
26721;HTU21D;15950;51.112;6.966;2024-01-16T14:23:27;2.01;71.80
26721;HTU21D;15950;51.112;6.966;2024-01-16T14:26:27;2.04;71.45
26721;HTU21D;15950;51.112;6.966;2024-01-16T14:29:28;2.06;71.55
26721;HTU21D;15950;51.112;6.966;2024-01-16T14:32:27;1.96;71.54
26721;HTU21D;15950;51.112;6.966;2024-01-16T14:35:27;2.18;71.38
26721;HTU21D;15950;51.112;6.966;2024-01-16T14:38:27;2.14;71.52
26721;HTU21D;15950;51.112;6.966;2024-01-16T14:41:27;1.89;71.62
26721;HTU21D;15950;51.112;6.966;2024-01-16T14:44:27;1.97;71.26
26721;HTU21D;15950;51.112;6.966;2024-01-16T14:47:27;1.97;71.07
26721;HTU21D;15950;51.112;6.966;2024-01-16T14:50:28;1.97;70.58
26721;HTU21D;15950;51.112;6.966;2024-01-16T14:53:27;1.95;70.74
26721;HTU21D;15950;51.112;6.966;2024-01-16T14:56:27;1.84;70.81
26721;HTU21D;15950;51.112;6.966;2024-01-16T14:59:27;1.82;70.10
26721;HTU21D;15950;51.112;6.966;2024-01-16T15:02:27;1.81;69.63
26721;HTU21D;15950;51.112;6.966;2024-01-16T15:05:27;1.82;69.68
26721;HTU21D;15950;51.112;6.966;2024-01-16T15:08:27;1.69;69.55
26721;HTU21D;15950;51.112;6.966;2024-01-16T15:11:27;1.72;69.47
26721;HTU21D;15950;51.112;6.966;2024-01-16T15:14:27;1.62;69.30
26721;HTU21D;15950;51.112;6.966;2024-01-16T15:17:27;1.48;69.42
26721;HTU21D;15950;51.112;6.966;2024-01-16T15:20:27;1.58;69.36
26721;HTU21D;15950;51.112;6.966;2024-01-16T15:23:27;1.62;69.52
26721;HTU21D;15950;51.112;6.966;2024-01-16T15:26:27;1.43;69.78
26721;HTU21D;15950;51.112;6.966;2024-01-16T15:29:27;1.57;69.90
26721;HTU21D;15950;51.112;6.966;2024-01-16T15:32:27;1.55;69.97
26721;HTU21D;15950;51.112;6.966;2024-01-16T15:35:27;1.50;69.83
26721;HTU21D;15950;51.112;6.966;2024-01-16T15:38:27;1.37;70.10
26721;HTU21D;15950;51.112;6.966;2024-01-16T15:41:27;1.36;70.16
26721;HTU21D;15950;51.112;6.966;2024-01-16T15:44:27;1.40;70.22
26721;HTU21D;15950;51.112;6.966;2024-01-16T15:47:27;1.61;70.21
26721;HTU21D;15950;51.112;6.966;2024-01-16T15:50:27;1.31;70.52
26721;HTU21D;15950;51.112;6.966;2024-01-16T15:53:27;1.34;70.93
26721;HTU21D;15950;51.112;6.966;2024-01-16T15:56:27;1.27;70.62
26721;HTU21D;15950;51.112;6.966;2024-01-16T15:59:27;1.23;70.47
26721;HTU21D;15950;51.112;6.966;2024-01-16T16:02:27;1.35;70.56
26721;HTU21D;15950;51.112;6.966;2024-01-16T16:05:27;1.33;70.64
26721;HTU21D;15950;51.112;6.966;2024-01-16T16:08:27;1.40;70.73
26721;HTU21D;15950;51.112;6.966;2024-01-16T16:11:27;1.44;70.65
26721;HTU21D;15950;51.112;6.966;2024-01-16T16:14:30;1.52;71.00
26721;HTU21D;15950;51.112;6.966;2024-01-16T16:17:27;1.59;71.16
26721;HTU21D;15950;51.112;6.966;2024-01-16T16:20:27;1.44;71.22
26721;HTU21D;15950;51.112;6.966;2024-01-16T16:23:27;1.04;71.79
26721;HTU21D;15950;51.112;6.966;2024-01-16T16:26:32;1.08;72.60
26721;HTU21D;15950;51.112;6.966;2024-01-16T16:29:27;0.87;72.99
26721;HTU21D;15950;51.112;6.966;2024-01-16T16:32:27;0.90;73.35
26721;HTU21D;15950;51.112;6.966;2024-01-16T16:35:27;0.81;73.40
26721;HTU21D;15950;51.112;6.966;2024-01-16T16:38:27;0.58;73.68
26721;HTU21D;15950;51.112;6.966;2024-01-16T16:41:27;0.69;74.04
26721;HTU21D;15950;51.112;6.966;2024-01-16T16:44:27;0.62;74.17
26721;HTU21D;15950;51.112;6.966;2024-01-16T16:47:27;0.57;74.07
26721;HTU21D;15950;51.112;6.966;2024-01-16T16:50:27;0.62;74.13
26721;HTU21D;15950;51.112;6.966;2024-01-16T16:53:27;0.58;74.28
26721;HTU21D;15950;51.112;6.966;2024-01-16T16:56:27;0.56;74.39
26721;HTU21D;15950;51.112;6.966;2024-01-16T16:59:27;0.74;74.38
26721;HTU21D;15950;51.112;6.966;2024-01-16T17:02:27;0.56;74.80
26721;HTU21D;15950;51.112;6.966;2024-01-16T17:05:27;0.60;75.24
26721;HTU21D;15950;51.112;6.966;2024-01-16T17:08:27;0.58;74.76
26721;HTU21D;15950;51.112;6.966;2024-01-16T17:11:27;0.81;74.65
26721;HTU21D;15950;51.112;6.966;2024-01-16T17:14:27;0.60;74.42
26721;HTU21D;15950;51.112;6.966;2024-01-16T17:17:27;0.62;74.64
26721;HTU21D;15950;51.112;6.966;2024-01-16T17:20:27;0.66;74.38
26721;HTU21D;15950;51.112;6.966;2024-01-16T17:23:28;0.69;74.29
26721;HTU21D;15950;51.112;6.966;2024-01-16T17:26:27;0.85;74.28
26721;HTU21D;15950;51.112;6.966;2024-01-16T17:29:30;1.22;74.06
26721;HTU21D;15950;51.112;6.966;2024-01-16T17:32:27;0.91;74.02
26721;HTU21D;15950;51.112;6.966;2024-01-16T17:35:27;0.87;73.82
26721;HTU21D;15950;51.112;6.966;2024-01-16T17:38:27;0.72;73.89
26721;HTU21D;15950;51.112;6.966;2024-01-16T17:41:27;0.87;73.83
26721;HTU21D;15950;51.112;6.966;2024-01-16T17:44:27;0.88;73.62
26721;HTU21D;15950;51.112;6.966;2024-01-16T17:47:27;0.79;73.69
26721;HTU21D;15950;51.112;6.966;2024-01-16T17:50:27;0.72;73.73
26721;HTU21D;15950;51.112;6.966;2024-01-16T17:53:27;0.78;73.68
26721;HTU21D;15950;51.112;6.966;2024-01-16T17:56:27;0.80;74.06
26721;HTU21D;15950;51.112;6.966;2024-01-16T17:59:27;0.94;74.02
26721;HTU21D;15950;51.112;6.966;2024-01-16T18:02:27;0.79;73.78
26721;HTU21D;15950;51.112;6.966;2024-01-16T18:05:27;1.03;74.29
26721;HTU21D;15950;51.112;6.966;2024-01-16T18:08:27;1.06;73.86
26721;HTU21D;15950;51.112;6.966;2024-01-16T18:11:27;0.99;73.88
26721;HTU21D;15950;51.112;6.966;2024-01-16T18:14:27;0.81;73.17
26721;HTU21D;15950;51.112;6.966;2024-01-16T18:17:27;0.92;73.28
26721;HTU21D;15950;51.112;6.966;2024-01-16T18:20:27;0.57;73.31
26721;HTU21D;15950;51.112;6.966;2024-01-16T18:23:27;0.57;73.91
26721;HTU21D;15950;51.112;6.966;2024-01-16T18:26:27;0.47;74.11
26721;HTU21D;15950;51.112;6.966;2024-01-16T18:29:27;0.43;74.35
26721;HTU21D;15950;51.112;6.966;2024-01-16T18:32:27;0.38;74.22
26721;HTU21D;15950;51.112;6.966;2024-01-16T18:35:27;0.51;74.12
26721;HTU21D;15950;51.112;6.966;2024-01-16T18:38:27;0.51;74.07
26721;HTU21D;15950;51.112;6.966;2024-01-16T18:41:27;0.55;73.67
26721;HTU21D;15950;51.112;6.966;2024-01-16T18:44:27;0.23;73.65
26721;HTU21D;15950;51.112;6.966;2024-01-16T18:47:27;0.18;73.93
26721;HTU21D;15950;51.112;6.966;2024-01-16T18:50:27;0.02;74.06
26721;HTU21D;15950;51.112;6.966;2024-01-16T18:53:27;-0.04;74.57
26721;HTU21D;15950;51.112;6.966;2024-01-16T18:56:27;0.20;74.40
26721;HTU21D;15950;51.112;6.966;2024-01-16T18:59:27;0.19;74.37
26721;HTU21D;15950;51.112;6.966;2024-01-16T19:02:27;0.27;74.46
26721;HTU21D;15950;51.112;6.966;2024-01-16T19:05:27;0.39;74.66